This is the latest recevied weather packets stored in our database for station/object W6SNO-1. If no packets are shown the sender has not sent any weather packets the latest 10 day(s).
| Time | Temp. | Humidity | Pressure | Rain* | Wind** | Luminosity | Snow |
|---|---|---|---|---|---|---|---|
| 1778095731 | 20° C | 62% | 1020 hPa | 0 mm | - | 789 W/m² | - |
| 1778095427 | 20° C | 62% | 1019.9 hPa | 0 mm | - | 789 W/m² | - |
| 1778095124 | 19.44° C | 63% | 1020.1 hPa | 0 mm | - | 789 W/m² | - |
| 1778092395 | 18.33° C | 67% | 1020.2 hPa | 0 mm | - | 733 W/m² | - |
| 1778092092 | 18.33° C | 67% | 1020.3 hPa | 0 mm | - | 733 W/m² | - |
| 1778091790 | 17.78° C | 68% | 1020.3 hPa | 0 mm | - | 717 W/m² | - |
| 1778086640 | 15° C | 78% | 1020.7 hPa | 0 mm | - | 197 W/m² | - |
| 1778086337 | 15° C | 78% | 1020.6 hPa | 0 mm | - | 197 W/m² | - |
| 1778085731 | 15° C | 79% | 1020.7 hPa | 0 mm | - | 207 W/m² | - |
| 1778085427 | 15° C | 79% | 1020.5 hPa | 0 mm | - | 207 W/m² | - |
| 1778084819 | 14.44° C | 80% | 1020.8 hPa | 0 mm | - | 163 W/m² | - |
| 1778084517 | 14.44° C | 80% | 1020.8 hPa | 0 mm | - | 163 W/m² | - |
| 1778083608 | 13.89° C | 82% | 1020.7 hPa | 0 mm | - | 117 W/m² | - |
| 1778083305 | 13.89° C | 82% | 1020.8 hPa | 0 mm | - | 117 W/m² | - |
| 1778083003 | 13.89° C | 83% | 1020.8 hPa | 0 mm | - | 93 W/m² | - |
| 1778082700 | 13.89° C | 83% | 1020.7 hPa | 0 mm | - | 93 W/m² | - |
| 1778081562 | 13.33° C | 84% | 1020.7 hPa | 0 mm | - | 79 W/m² | - |
| 1778081259 | 13.33° C | 84% | 1020.6 hPa | 0 mm | - | 68 W/m² | - |
| 1778080956 | 13.33° C | 85% | 1020.8 hPa | 0 mm | - | 53 W/m² | - |
| 1778080655 | 13.33° C | 85% | 1020.7 hPa | 0 mm | - | 53 W/m² | - |
| 1778080351 | 13.33° C | 85% | 1020.7 hPa | 0 mm | - | 55 W/m² | - |
| 1778080048 | 13.33° C | 85% | 1020.6 hPa | 0 mm | - | 55 W/m² | - |
| 1778079745 | 13.33° C | 85% | 1020.6 hPa | 0 mm | - | 56 W/m² | - |
| 1778079442 | 13.33° C | 85% | 1020.7 hPa | 0 mm | - | 54 W/m² | - |
| 1778078533 | 13.33° C | 85% | 1020.8 hPa | 0 mm | - | 38 W/m² | - |
* Rain latest hour (hover to see other rain measurements)
** Current wind speed in m/s (hover to see current wind gust speed)